Flight Track Log - Related Links

Times and Time Zones

All times are in EDT time to prevent confusion due to time zone crossing. See the AAL832 flight status page for this flight to view local times or setup timezone preferences in your user account.

Time Position Orientation Groundspeed Altitude Reporting Facility
EDT Latitude Longitude Course Direction KTS MPH feet Rate Location/Type
Sun 06:01:57 PM 41.9460 -87.9080 211° Southwest 156 180 1,500  Level FlightAware ADS-B
Sun 06:02:05 PM 41.9400 -87.9090 187° South 160 184 1,800 1,500 Climbing FlightAware ADS-B
Sun 06:02:41 PM 41.9120 -87.9010 168° South 206 237 2,600 1,406 Climbing FlightAware ADS-B
Sun 06:03:09 PM 41.8850 -87.8840 155° Southeast 245 282 3,300 2,105 Climbing FlightAware ADS-B
Sun 06:03:38 PM 41.8540 -87.8630 153° Southeast 258 297 4,600 2,632 Climbing FlightAware ADS-B
Sun 06:04:06 PM 41.8220 -87.8420 154° Southeast 274 315 5,800 2,679 Climbing FlightAware ADS-B
Sun 06:04:34 PM 41.7940 -87.8220 152° Southeast 279 321 7,100 2,824 Climbing FlightAware ADS-B
Sun 06:04:57 PM 41.7650 -87.8020 153° Southeast 287 330 8,200 3,059 Climbing FlightAware ADS-B
Sun 06:05:25 PM 41.7290 -87.7780 154° Southeast 293 337 9,700 3,000 Climbing FlightAware ADS-B
Sun 06:06:09 PM 41.6770 -87.7430 153° Southeast 297 342 11,800 2,828 Climbing FlightAware ADS-B
Sun 06:06:52 PM 41.6220 -87.7080 155° Southeast 305 351 13,800 2,341 Climbing FlightAware ADS-B
Sun 06:07:31 PM 41.5680 -87.6880 165° South 329 379 15,000 2,268 Climbing FlightAware ADS-B
Sun 06:08:14 PM 41.5010 -87.6650 166° South 337 388 16,900 2,047 Climbing FlightAware ADS-B
Sun 06:08:56 PM 41.4360 -87.6400 164° South 363 418 17,900 1,694 Climbing FlightAware ADS-B
Sun 06:09:39 PM 41.3670 -87.6140 164° South 371 427 19,300 1,773 Climbing FlightAware ADS-B
Sun 06:10:24 PM 41.2900 -87.5860 165° South 387 445 20,500 1,500 Climbing FlightAware ADS-B
Sun 06:10:59 PM 41.2270 -87.5630 165° South 401 461 21,300 730 Climbing FlightAware ADS-B
Sun 06:11:38 PM 41.1680 -87.5400 164° South 402 463 21,400 1,600 Climbing FlightAware ADS-B
Sun 06:12:29 PM 41.0590 -87.5020 165° South 423 487 23,700 1,846 Climbing FlightAware ADS-B
Sun 06:13:09 PM 40.9840 -87.4740 164° South 445 512 24,200 1,185 Climbing FlightAware ADS-B
Sun 06:13:50 PM 40.9020 -87.4440 165° South 450 518 25,300 1,624 Climbing FlightAware ADS-B
Sun 06:14:34 PM 40.8130 -87.4120 165° South 455 524 26,500 1,624 Climbing FlightAware ADS-B
Sun 06:15:15 PM 40.7350 -87.3840 165° South 456 525 27,600 1,482 Climbing FlightAware ADS-B
Sun 06:15:59 PM 40.6440 -87.3510 165° South 462 532 28,600 1,429 Climbing FlightAware ADS-B
Sun 06:16:39 PM 40.5540 -87.3190 165° South 465 535 29,600 1,390 Climbing FlightAware ADS-B
Sun 06:17:21 PM 40.4680 -87.2880 165° South 468 539 30,500 1,200 Climbing FlightAware ADS-B
Sun 06:17:59 PM 40.3880 -87.2590 165° South 471 542 31,200 1,154 Climbing FlightAware ADS-B
Sun 06:18:39 PM 40.3030 -87.2290 165° South 473 544 32,000 1,139 Climbing FlightAware ADS-B
Sun 06:19:18 PM 40.2230 -87.2000 165° South 474 545 32,700 1,200 Climbing FlightAware ADS-B
Sun 06:20:04 PM 40.1220 -87.1650 165° South 472 543 33,700 1,357 Climbing FlightAware ADS-B
Sun 06:20:42 PM 40.0420 -87.1360 164° South 469 540 34,600 1,317 Climbing FlightAware ADS-B
Sun 06:21:26 PM 39.9550 -87.0900 158° South 467 537 35,500 1,186 Climbing FlightAware ADS-B
Sun 06:22:08 PM 39.8790 -87.0270 148° Southeast 462 532 36,300 1,071 Climbing FlightAware ADS-B
Sun 06:22:50 PM 39.8030 -86.9630 147° Southeast 460 529 37,000 488 Climbing FlightAware ADS-B
Sun 06:23:34 PM 39.7250 -86.8970 147° Southeast 460 529 37,000  Level FlightAware ADS-B
Sun 06:24:14 PM 39.6530 -86.8360 147° Southeast 458 527 37,000  Level FlightAware ADS-B
Sun 06:24:58 PM 39.5760 -86.7720 147° Southeast 458 527 37,000  Level FlightAware ADS-B
Sun 06:25:38 PM 39.5030 -86.7120 148° Southeast 458 527 37,000  Level FlightAware ADS-B
Sun 06:26:20 PM 39.4290 -86.6510 148° Southeast 462 532 37,000  Level FlightAware ADS-B
Sun 06:27:02 PM 39.3530 -86.5880 147° Southeast 466 536 37,000  Level FlightAware ADS-B
Sun 06:27:44 PM 39.2750 -86.5240 148° Southeast 468 539 37,000  Level FlightAware ADS-B
Sun 06:28:22 PM 39.2100 -86.4700 147° Southeast 467 537 37,000  Level FlightAware ADS-B
Sun 06:29:08 PM 39.1220 -86.3980 148° Southeast 467 537 37,000  Level FlightAware ADS-B
Sun 06:29:52 PM 39.0420 -86.3320 147° Southeast 469 540 37,000  Level FlightAware ADS-B
Sun 06:30:34 PM 38.9650 -86.2690 148° Southeast 471 542 37,000  Level FlightAware ADS-B
Sun 06:31:26 PM 38.8690 -86.1920 148° Southeast 472 543 37,000  Level FlightAware ADS-B
Sun 06:32:23 PM 38.7650 -86.1070 147° Southeast 475 547 37,000  Level FlightAware ADS-B
Sun 06:33:07 PM 38.6810 -86.0390 148° Southeast 476 548 37,000  Level FlightAware ADS-B
Sun 06:33:47 PM 38.6070 -85.9790 148° Southeast 476 548 37,000  Level FlightAware ADS-B
Sun 06:34:33 PM 38.5230 -85.9110 148° Southeast 476 548 37,000  Level FlightAware ADS-B
Sun 06:35:13 PM 38.4470 -85.8510 148° Southeast 475 547 37,000  Level FlightAware ADS-B
Sun 06:35:53 PM 38.3720 -85.7910 148° Southeast 475 547 37,000  Level FlightAware ADS-B
Sun 06:36:39 PM 38.2860 -85.7230 148° Southeast 476 548 37,000  Level FlightAware ADS-B
Sun 06:37:19 PM 38.2130 -85.6640 148° Southeast 476 548 37,000  Level FlightAware ADS-B
Sun 06:37:59 PM 38.1370 -85.6040 148° Southeast 478 550 37,000  Level FlightAware ADS-B
Sun 06:38:41 PM 38.0590 -85.5420 148° Southeast 479 551 37,000  Level FlightAware ADS-B
Sun 06:39:21 PM 37.9830 -85.4830 149° Southeast 481 554 37,000  Level FlightAware ADS-B
Sun 06:40:07 PM 37.8960 -85.4140 148° Southeast 482 555 37,000  Level FlightAware ADS-B
Sun 06:40:49 PM 37.8180 -85.3520 148° Southeast 484 557 37,000  Level FlightAware ADS-B
Sun 06:41:29 PM 37.7400 -85.2910 148° Southeast 485 558 37,000  Level FlightAware ADS-B
Sun 06:42:09 PM 37.6640 -85.2320 148° Southeast 486 559 37,000  Level FlightAware ADS-B
Sun 06:42:33 PM 37.6174 -85.1952 148° Southeast 486 559 37,000  Level FlightAware ADS-B
Sun 06:43:05 PM 37.5569 -85.1480 148° Southeast 487 560 37,000  Level FlightAware ADS-B
Sun 06:43:36 PM 37.4972 -85.1019 149° Southeast 488 562 37,000  Level FlightAware ADS-B
Sun 06:44:07 PM 37.4372 -85.0554 148° Southeast 487 560 37,000  Level FlightAware ADS-B
Sun 06:44:39 PM 37.3752 -85.0072 148° Southeast 487 560 37,000  Level FlightAware ADS-B
Sun 06:45:23 PM 37.2919 -84.9426 148° Southeast 487 560 37,000  Level FlightAware ADS-B
Sun 06:45:54 PM 37.2316 -84.8961 148° Southeast 486 559 37,000  Level FlightAware ADS-B
Sun 06:46:28 PM 37.1672 -84.8465 148° Southeast 483 556 37,000  Level FlightAware ADS-B
Sun 06:46:59 PM 37.1096 -84.8023 149° Southeast 480 552 37,000  Level FlightAware ADS-B
Sun 06:47:29 PM 37.0518 -84.7581 149° Southeast 478 550 37,000  Level FlightAware ADS-B
Sun 06:48:07 PM 36.9802 -84.7035 149° Southeast 476 548 37,000  Level FlightAware ADS-B
Sun 06:48:40 PM 36.9187 -84.6566 149° Southeast 474 545 37,000  Level FlightAware ADS-B
Sun 06:49:12 PM 36.8595 -84.6114 149° Southeast 474 545 37,000  Level FlightAware ADS-B
Sun 06:49:42 PM 36.8025 -84.5680 149° Southeast 471 542 37,000  Level FlightAware ADS-B
Sun 06:50:15 PM 36.7423 -84.5222 149° Southeast 470 541 37,000  Level FlightAware ADS-B
Sun 06:50:46 PM 36.6852 -84.4788 149° Southeast 470 541 37,000  Level FlightAware ADS-B
Sun 06:51:16 PM 36.6296 -84.4368 149° Southeast 469 540 37,000  Level FlightAware ADS-B
Sun 06:51:47 PM 36.5716 -84.3930 149° Southeast 468 539 37,000  Level FlightAware ADS-B
Sun 06:52:18 PM 36.5143 -84.3498 149° Southeast 467 537 37,000  Level FlightAware ADS-B
Sun 06:52:43 PM 36.4672 -84.3142 149° Southeast 468 539 37,000  Level FlightAware ADS-B
Sun 06:52:52 PM 36.4521 -84.3010 145° Southeast 469 540 37,000  Level FlightAware ADS-B
Sun 06:52:58 PM 36.4423 -84.2908 140° Southeast 469 540 37,000  Level FlightAware ADS-B
Sun 06:53:28 PM 36.3948 -84.2353 137° Southeast 471 542 37,000  Level FlightAware ADS-B
Sun 06:53:59 PM 36.3462 -84.1780 136° Southeast 471 542 37,000  Level FlightAware ADS-B
Sun 06:54:29 PM 36.2986 -84.1216 136° Southeast 470 541 37,000  Level FlightAware ADS-B
Sun 06:55:00 PM 36.2506 -84.0633 136° Southeast 469 540 37,000  Level FlightAware ADS-B
Sun 06:55:31 PM 36.2032 -84.0053 135° Southeast 467 537 37,000  Level FlightAware ADS-B
Sun 06:56:02 PM 36.1549 -83.9462 135° Southeast 466 536 37,000  Level FlightAware ADS-B
Sun 06:56:31 PM 36.1121 -83.8926 135° Southeast 464 534 37,000  Level FlightAware ADS-B
Sun 06:57:01 PM 36.0708 -83.8284 129° Southeast 465 535 37,000  Level FlightAware ADS-B
Sun 06:57:32 PM 36.0302 -83.7646 128° Southeast 463 533 37,000  Level FlightAware ADS-B
Sun 06:58:03 PM 35.9893 -83.7005 128° Southeast 460 529 37,000  Level FlightAware ADS-B
Sun 06:58:34 PM 35.9487 -83.6361 128° Southeast 458 527 37,000  Level FlightAware ADS-B
Sun 06:59:08 PM 35.9058 -83.5679 128° Southeast 455 524 37,000  Level FlightAware ADS-B
Sun 06:59:15 PM 35.8952 -83.5525 130° Southeast 454 522 37,000  Level FlightAware ADS-B
Sun 06:59:38 PM 35.8608 -83.5116 136° Southeast 451 519 37,000  Level FlightAware ADS-B
Sun 07:00:13 PM 35.8065 -83.4534 139° Southeast 452 520 37,000 -92 Level FlightAware ADS-B
Sun 07:00:43 PM 35.7584 -83.4006 138° Southeast 455 524 36,900 -590 Descending FlightAware ADS-B
Sun 07:01:14 PM 35.7104 -83.3480 138° Southeast 454 522 36,400 -885 Descending FlightAware ADS-B
Sun 07:01:44 PM 35.6626 -83.2972 139° Southeast 458 527 36,000 -369 Descending FlightAware ADS-B
Sun 07:02:19 PM 35.6071 -83.2383 139° Southeast 456 525 36,000  Level FlightAware ADS-B
Sun 07:02:49 PM 35.5591 -83.1877 139° Southeast 456 525 36,000  Level FlightAware ADS-B
Sun 07:03:03 PM 35.5351 -83.1642 141° Southeast 453 521 36,000  Level FlightAware ADS-B
Sun 07:03:37 PM 35.4746 -83.1186 148° Southeast 451 519 36,000  Level FlightAware ADS-B
Sun 07:03:50 PM 35.4524 -83.1042 152° Southeast 449 517 36,000  Level FlightAware ADS-B
Sun 07:04:21 PM 35.3922 -83.0708 156° South 448 516 36,000  Level FlightAware ADS-B
Sun 07:04:52 PM 35.3350 -83.0395 156° South 447 514 36,000  Level FlightAware ADS-B
Sun 07:05:22 PM 35.2783 -83.0086 156° South 445 512 36,000  Level FlightAware ADS-B
Sun 07:05:52 PM 35.2208 -82.9770 156° South 444 511 36,000  Level FlightAware ADS-B
Sun 07:06:23 PM 35.1645 -82.9461 156° South 442 509 36,000  Level FlightAware ADS-B
Sun 07:06:53 PM 35.1080 -82.9152 156° South 440 506 36,000  Level FlightAware ADS-B
Sun 07:07:24 PM 35.0494 -82.8831 156° South 440 506 36,000  Level FlightAware ADS-B
Sun 07:07:56 PM 34.9909 -82.8512 156° South 438 504 36,000  Level FlightAware ADS-B
Sun 07:08:27 PM 34.9340 -82.8201 156° South 436 502 36,000  Level FlightAware ADS-B
Sun 07:08:57 PM 34.8777 -82.7894 156° South 437 503 36,000  Level FlightAware ADS-B
Sun 07:09:28 PM 34.8204 -82.7584 156° South 438 504 36,000  Level FlightAware ADS-B
Sun 07:10:00 PM 34.7627 -82.7271 156° South 437 503 36,000  Level FlightAware ADS-B
Sun 07:10:34 PM 34.7001 -82.6931 156° South 438 504 36,000  Level FlightAware ADS-B
Sun 07:11:09 PM 34.6346 -82.6576 156° South 438 504 36,000 238 Level FlightAware ADS-B
Sun 07:12:15 PM 34.5150 -82.5930 156° South 446 513 36,400 600 Climbing FlightAware ADS-B
Sun 07:12:59 PM 34.4290 -82.5470 156° South 447 514 37,100 929 Climbing FlightAware ADS-B
Sun 07:13:39 PM 34.3540 -82.5070 156° South 443 510 37,700 635 Climbing FlightAware ADS-B
Sun 07:14:24 PM 34.2720 -82.4620 156° South 442 509 38,000 212 Climbing FlightAware ADS-B
Sun 07:15:04 PM 34.1960 -82.4220 156° South 441 507 38,000  Level FlightAware ADS-B
Sun 07:15:44 PM 34.1220 -82.3820 156° South 440 506 38,000  Level FlightAware ADS-B
Sun 07:16:29 PM 34.0410 -82.3390 156° South 440 506 38,000  Level FlightAware ADS-B
Sun 07:17:14 PM 33.9550 -82.2930 156° South 440 506 38,000  Level FlightAware ADS-B
Sun 07:17:54 PM 33.8800 -82.2540 157° South 440 506 38,000  Level FlightAware ADS-B
Sun 07:18:35 PM 33.8030 -82.2130 156° South 441 507 38,000  Level FlightAware ADS-B
Sun 07:19:32 PM 33.7030 -82.1660 159° South 436 502 38,000  Level FlightAware ADS-B
Sun 07:20:14 PM 33.6150 -82.1510 172° South 431 496 38,000  Level FlightAware ADS-B
Sun 07:21:09 PM 33.5040 -82.1380 174° South 431 496 38,000  Level FlightAware ADS-B
Sun 07:21:54 PM 33.4190 -82.1290 175° South 433 498 38,000  Level FlightAware ADS-B
Sun 07:22:34 PM 33.3360 -82.1190 174° South 434 499 38,000  Level FlightAware ADS-B
Sun 07:23:14 PM 33.2550 -82.1100 175° South 434 499 38,000  Level FlightAware ADS-B
Sun 07:23:54 PM 33.1760 -82.1010 175° South 435 501 38,000  Level FlightAware ADS-B
Sun 07:24:41 PM 33.0850 -82.0900 174° South 436 502 38,000  Level FlightAware ADS-B
Sun 07:25:24 PM 32.9990 -82.0810 175° South 435 501 38,000  Level FlightAware ADS-B
Sun 07:25:59 PM 32.9240 -82.0720 174° South 434 499 38,000  Level FlightAware ADS-B
Sun 07:26:45 PM 32.8320 -82.0620 175° South 432 497 38,000  Level FlightAware ADS-B
Sun 07:27:44 PM 32.7170 -82.0480 174° South 434 499 38,000  Level FlightAware ADS-B
Sun 07:28:19 PM 32.6470 -82.0410 175° South 433 498 38,000  Level FlightAware ADS-B
Sun 07:29:09 PM 32.5460 -82.0290 174° South 434 499 38,000  Level FlightAware ADS-B
Sun 07:29:49 PM 32.4660 -82.0200 175° South 436 502 38,000  Level FlightAware ADS-B
Sun 07:30:44 PM 32.3630 -82.0080 174° South 437 503 38,000  Level FlightAware ADS-B
Sun 07:31:20 PM 32.3010 -82.0000 174° South 437 503 38,000  Level FlightAware ADS-B
Sun 07:32:04 PM 32.1980 -81.9900 175° South 443 510 38,000  Level FlightAware ADS-B
Sun 07:32:54 PM 32.1150 -81.9800 174° South 444 511 38,000  Level FlightAware ADS-B
Sun 07:33:32 PM 32.0500 -81.9720 174° South 444 511 38,000  Level FlightAware ADS-B
Sun 07:34:08 PM 31.9870 -81.9640 174° South 444 511 38,000  Level FlightAware ADS-B
Sun 07:34:57 PM 31.9020 -81.9530 174° South 444 511 38,000  Level FlightAware ADS-B
Sun 07:35:34 PM 31.8380 -81.9450 174° South 444 511 38,000  Level FlightAware ADS-B
Sun 07:36:25 PM 31.7490 -81.9340 174° South 444 511 38,000  Level FlightAware ADS-B
Sun 07:37:02 PM 31.6850 -81.9270 175° South 444 511 38,000  Level FlightAware ADS-B
Sun 07:37:38 PM 31.6220 -81.9190 174° South 444 511 38,000  Level FlightAware ADS-B
Sun 07:38:27 PM 31.5370 -81.9080 174° South 444 511 38,000  Level FlightAware ADS-B
Sun 07:39:03 PM 31.4750 -81.9010 174° South 444 511 38,000  Level FlightAware ADS-B
Sun 07:39:52 PM 31.3900 -81.8900 174° South 444 511 38,000  Level FlightAware ADS-B
Sun 07:40:28 PM 31.3270 -81.8820 174° South 444 511 38,000  Level FlightAware ADS-B
Sun 07:41:16 PM 31.2440 -81.8720 174° South 444 511 38,000  Level FlightAware ADS-B
Sun 07:41:53 PM 31.1790 -81.8640 174° South 444 511 38,000  Level FlightAware ADS-B
Sun 07:44:03 PM 30.8570 -81.5500 140° Southeast 38,000  Level FlightAware ADS-B
Sun 07:44:38 PM 30.7930 -81.5010 147° Southeast 452 520 38,000  Level FlightAware ADS-B
Sun 07:45:26 PM 30.7130 -81.4380 146° Southeast 452 520 38,000  Level FlightAware ADS-B
Sun 07:46:24 PM 30.6030 -81.3710 152° Southeast 447 514 38,000  Level FlightAware ADS-B
Sun 07:47:03 PM 30.5320 -81.3500 166° South 442 509 38,000  Level FlightAware ADS-B
Sun 07:47:48 PM 30.4380 -81.3300 170° South 442 509 38,000  Level FlightAware ADS-B
Sun 07:48:28 PM 30.3540 -81.3150 171° South 443 510 38,000  Level FlightAware ADS-B
Sun 07:49:08 PM 30.2690 -81.2990 171° South 443 510 38,000  Level FlightAware ADS-B
Sun 07:49:50 PM 30.1910 -81.2840 171° South 443 510 38,000  Level FlightAware ADS-B
Sun 07:50:32 PM 30.1030 -81.2670 171° South 444 511 38,000  Level FlightAware ADS-B
Sun 07:51:20 PM 30.0030 -81.2480 171° South 445 512 38,000  Level FlightAware ADS-B
Sun 07:53:12 PM 29.7790 -81.2040 170° South 444 511 38,000  Level FlightAware ADS-B
Sun 07:53:50 PM 29.7080 -81.1910 171° South 444 511 38,000  Level FlightAware ADS-B
Sun 07:54:30 PM 29.6210 -81.1740 170° South 444 511 38,000  Level FlightAware ADS-B
Sun 07:55:15 PM 29.5350 -81.1570 170° South 444 511 38,000  Level FlightAware ADS-B
Sun 07:55:56 PM 29.4520 -81.1410 170° South 445 512 38,000  Level FlightAware ADS-B
Sun 07:56:36 PM 29.3650 -81.1240 170° South 446 513 38,000  Level FlightAware ADS-B
Sun 07:57:21 PM 29.2720 -81.1000 167° South 448 516 38,000  Level FlightAware ADS-B
Sun 07:58:31 PM 29.1360 -81.0450 161° South 446 513 38,000  Level FlightAware ADS-B
Sun 07:59:11 PM 29.0580 -81.0140 161° South 446 513 38,000  Level FlightAware ADS-B
Sun 07:59:56 PM 28.9720 -80.9800 161° South 446 513 38,000  Level FlightAware ADS-B
Sun 08:00:36 PM 28.8910 -80.9470 160° South 445 512 38,000  Level FlightAware ADS-B
Sun 08:01:21 PM 28.8040 -80.9130 161° South 444 511 38,000  Level FlightAware ADS-B
Sun 08:02:11 PM 28.7080 -80.8740 160° South 442 509 38,000  Level FlightAware ADS-B
Sun 08:02:54 PM 28.6260 -80.8410 161° South 441 507 38,000  Level FlightAware ADS-B
Sun 08:03:41 PM 28.5330 -80.8040 161° South 443 510 38,000  Level FlightAware ADS-B
Sun 08:04:17 PM 28.4640 -80.7770 161° South 444 511 38,000  Level FlightAware ADS-B
Sun 08:05:02 PM 28.3760 -80.7420 161° South 445 512 38,000  Level FlightAware ADS-B
Sun 08:05:47 PM 28.2880 -80.7070 161° South 445 512 38,000  Level FlightAware ADS-B
Sun 08:06:27 PM 28.2110 -80.6770 161° South 446 513 38,000  Level FlightAware ADS-B
Sun 08:07:12 PM 28.1210 -80.6420 161° South 441 507 38,000  Level FlightAware ADS-B
Sun 08:07:52 PM 28.0430 -80.6140 162° South 450 518 38,000  Level FlightAware ADS-B
Sun 08:08:32 PM 27.9620 -80.5860 163° South 451 519 38,000 -988 Level FlightAware ADS-B
Sun 08:09:17 PM 27.8730 -80.5560 163° South 438 504 36,600 -2,259 Descending FlightAware ADS-B
Sun 08:09:57 PM 27.7950 -80.5290 163° South 451 519 34,800 -2,850 Descending FlightAware ADS-B
Sun 08:10:37 PM 27.7130 -80.5010 163° South 457 526 32,800 -3,035 Descending FlightAware ADS-B
Sun 08:11:22 PM 27.6240 -80.4680 162° South 462 532 30,500 -2,850 Descending FlightAware ADS-B
Sun 08:11:57 PM 27.5530 -80.4390 160° South 449 517 29,000 -2,400 Descending FlightAware ADS-B
Sun 08:12:47 PM 27.4580 -80.4000 160° South 447 514 27,100 -2,333 Descending FlightAware ADS-B
Sun 08:13:27 PM 27.3780 -80.3680 160° South 429 494 25,500 -2,240 Descending FlightAware ADS-B
Sun 08:14:02 PM 27.3160 -80.3430 160° South 429 494 24,300 -1,098 Descending FlightAware ADS-B
Sun 08:14:49 PM 27.2250 -80.3050 160° South 411 473 24,000 -207 Descending FlightAware ADS-B
Sun 08:15:29 PM 27.1510 -80.2760 161° South 411 473 24,000  Level FlightAware ADS-B
Sun 08:16:14 PM 27.0690 -80.2430 160° South 413 475 24,000 -279 Level FlightAware ADS-B
Sun 08:16:55 PM 26.9960 -80.2140 161° South 411 473 23,600 -1,553 Descending FlightAware ADS-B
Sun 08:17:39 PM 26.9140 -80.1800 160° South 411 473 21,800 -2,329 Descending FlightAware ADS-B
Sun 08:18:20 PM 26.8420 -80.1510 160° South 396 456 20,300 -2,250 Descending FlightAware ADS-B
Sun 08:18:59 PM 26.7730 -80.1240 161° South 396 456 18,800 -2,214 Descending FlightAware ADS-B
Sun 08:19:44 PM 26.6970 -80.0930 160° South 375 432 17,200 -2,044 Descending FlightAware ADS-B
Sun 08:20:30 PM 26.6180 -80.0760 169° South 372 428 15,700 -1,976 Descending FlightAware ADS-B
Sun 08:21:09 PM 26.5510 -80.0640 171° South 357 411 14,400 -2,025 Descending FlightAware ADS-B
Sun 08:21:50 PM 26.4840 -80.0530 172° South 360 414 13,000 -1,129 Descending FlightAware ADS-B
Sun 08:22:34 PM 26.4110 -80.0400 171° South 343 395 12,800 -500 Descending FlightAware ADS-B
Sun 08:23:14 PM 26.3480 -80.0290 171° South 339 390 12,300 -977 Descending FlightAware ADS-B
Sun 08:24:00 PM 26.2750 -80.0170 172° South 338 389 11,400 -1,256 Descending FlightAware ADS-B
Sun 08:24:40 PM 26.2090 -80.0260 187° South 347 399 10,500 -1,185 Descending FlightAware ADS-B
Sun 08:25:21 PM 26.1470 -80.0430 194° South 341 392 9,800 -609 Descending FlightAware ADS-B
Sun 08:25:49 PM 26.1050 -80.0550 194° South 317 365 9,800 -140 Level FlightAware ADS-B
Sun 08:26:04 PM 26.0830 -80.0610 194° South 304 350 9,700 -837 Descending FlightAware ADS-B
Sun 08:26:32 PM 26.0460 -80.0720 195° South 296 341 9,200 -1,200 Descending FlightAware ADS-B
Sun 08:26:49 PM 26.0240 -80.0780 194° South 293 337 8,800 -1,333 Descending FlightAware ADS-B
Sun 08:27:17 PM 25.9870 -80.0880 194° South 287 330 8,200 -1,350 Descending FlightAware ADS-B
Sun 08:27:29 PM 25.9720 -80.0940 200° South 285 328 7,900 -960 Descending FlightAware ADS-B
Sun 08:27:42 PM 25.9580 -80.1060 218° Southwest 288 331 7,800 -207 Descending FlightAware ADS-B
Sun 08:27:58 PM 25.9490 -80.1270 245° Southwest 293 337 7,800  Level FlightAware ADS-B
Sun 08:28:24 PM 25.9460 -80.1660 265° West 280 322 7,800  Level FlightAware ADS-B
Sun 08:28:52 PM 25.9430 -80.2060 265° West 275 316 7,800 -207 Level FlightAware ADS-B
Sun 08:29:22 PM 25.9400 -80.2490 266° West 273 314 7,600 -1,071 Descending FlightAware ADS-B
Sun 08:29:48 PM 25.9370 -80.2840 265° West 272 313 6,800 -1,833 Descending FlightAware ADS-B
Sun 08:29:58 PM 25.9360 -80.2980 265° West 273 314 6,500 -1,650 Descending FlightAware ADS-B
Sun 08:30:28 PM 25.9330 -80.3380 265° West 271 312 5,700 -1,527 Descending FlightAware ADS-B
Sun 08:30:53 PM 25.9310 -80.3740 266° West 266 306 5,100 -1,966 Descending FlightAware ADS-B
Sun 08:31:26 PM 25.9270 -80.4190 264° West 260 299 3,800 -2,034 Descending FlightAware ADS-B
Sun 08:31:52 PM 25.9210 -80.4500 258° West 246 283 3,100 -1,463 Descending FlightAware ADS-B
Sun 08:32:07 PM 25.9090 -80.4620 222° Southwest 230 265 2,800 -1,200 Descending FlightAware ADS-B
Sun 08:32:22 PM 25.8940 -80.4660 193° South 208 239 2,500 -1,116 Descending FlightAware ADS-B
Sun 08:32:50 PM 25.8740 -80.4490 143° Southeast 191 220 2,000 -792 Descending FlightAware ADS-B
Sun 08:33:15 PM 25.8630 -80.4280 120° Southeast 181 208 1,800 -218 Descending FlightAware ADS-B
Sun 08:33:45 PM 25.8510 -80.4040 119° Southeast 174 200 1,800 -400 Level FlightAware ADS-B
Sun 08:34:15 PM 25.8400 -80.3820 119° Southeast 148 170 1,400 -764 Descending FlightAware ADS-B
Sun 08:34:40 PM 25.8310 -80.3660 122° Southeast 138 159 1,100 -764 Descending FlightAware ADS-B
Sun 08:35:10 PM 25.8220 -80.3470 118° Southeast 140 161 700 -700 Descending FlightAware ADS-B
Sun 08:35:40 PM 25.8130 -80.3280 118° Southeast 143 165 400 -577 Descending FlightAware ADS-B
Sun 08:36:02 PM 25.8080 -80.3190 122° Southeast 142 163 200 -545 Descending FlightAware ADS-B
Sun 08:36:36 PM 25.7940 -80.2920 120° Southeast 115 132 -353 Descending FlightAware ADS-B
Sun 08:37:04 PM 25.7910 -80.2860 119° Southeast 22 25  Level FlightAware ADS-B
Sun 08:37:28 PM 25.7910 -80.2840 90° East 26 30  Level FlightAware ADS-B
Sun 08:37:40 PM 25.7920 -80.2840 360° North 29 33  Level FlightAware ADS-B
Sun 08:38:08 PM 25.7930 -80.2850 318° Northwest 34 39  Level FlightAware ADS-B

Login

Don't have an account? Register now (free) for customized features, flight alerts, and more!